createdAt,value
2018-08-28T00:00:19.201Z,101212.00
2018-08-28T00:06:22.616Z,101217.00
2018-08-28T00:12:26.221Z,101214.00
2018-08-28T00:18:29.914Z,101210.00
2018-08-28T00:24:33.803Z,101213.00
2018-08-28T00:30:38.140Z,101229.00
2018-08-28T00:36:41.885Z,101225.00
2018-08-28T00:42:46.468Z,101226.00
2018-08-28T00:48:50.087Z,101234.00
2018-08-28T00:54:53.593Z,101226.00
2018-08-28T01:00:56.925Z,101236.00
2018-08-28T01:07:00.616Z,101232.00
2018-08-28T01:13:04.765Z,101229.00
2018-08-28T01:19:08.298Z,101236.00
2018-08-28T01:25:11.818Z,101233.00
2018-08-28T01:31:15.390Z,101243.00
2018-08-28T01:37:18.874Z,101241.00
2018-08-28T01:43:23.137Z,101238.00
2018-08-28T01:49:26.690Z,101234.00
2018-08-28T01:55:30.462Z,101233.00
2018-08-28T02:01:34.021Z,101230.00
2018-08-28T02:07:38.317Z,101213.00
2018-08-28T02:13:42.667Z,101236.00
2018-08-28T02:19:46.339Z,101243.00
2018-08-28T02:25:50.052Z,101250.00
2018-08-28T02:31:53.630Z,101247.00
2018-08-28T02:37:56.954Z,101245.00
2018-08-28T02:44:00.499Z,101242.00
2018-08-28T02:50:04.344Z,101241.00
2018-08-28T02:56:08.193Z,101238.00
2018-08-28T03:02:12.425Z,101238.00
2018-08-28T03:08:15.977Z,101252.00
2018-08-28T03:14:19.737Z,101239.00
2018-08-28T03:20:23.471Z,101245.00
2018-08-28T03:26:29.938Z,101244.00
2018-08-28T03:32:33.616Z,101248.00
2018-08-28T03:38:37.808Z,101258.00
2018-08-28T03:44:41.522Z,101253.00
2018-08-28T03:50:45.033Z,101263.00
2018-08-28T03:56:48.471Z,101258.00
2018-08-28T04:02:51.971Z,101268.00
2018-08-28T04:08:55.981Z,101264.00
2018-08-28T04:14:59.733Z,101267.00
2018-08-28T04:21:03.572Z,101260.00
2018-08-28T04:27:07.123Z,101275.00
2018-08-28T04:33:10.524Z,101272.00
2018-08-28T04:39:14.180Z,101286.00
2018-08-28T04:45:18.874Z,101286.00
2018-08-28T04:51:22.425Z,101293.00
2018-08-28T04:57:26.548Z,101297.00
2018-08-28T05:03:31.180Z,101299.00
2018-08-28T05:09:34.584Z,101306.00
2018-08-28T05:15:38.257Z,101311.00
2018-08-28T05:21:41.795Z,101308.00
2018-08-28T05:27:45.282Z,101312.00
2018-08-28T05:33:48.835Z,101324.00
2018-08-28T05:39:53.617Z,101331.00
2018-08-28T05:45:57.738Z,101329.00
2018-08-28T05:52:01.262Z,101334.00
2018-08-28T05:58:05.858Z,101341.00
2018-08-28T06:04:09.627Z,101341.00
2018-08-28T06:10:20.239Z,101346.00
2018-08-28T06:16:24.076Z,101355.00
2018-08-28T06:22:27.862Z,101366.00
2018-08-28T06:28:32.340Z,101360.00
2018-08-28T06:34:35.962Z,101378.00
2018-08-28T06:40:39.334Z,101378.00
2018-08-28T06:46:42.901Z,101385.00
2018-08-28T06:52:46.340Z,101392.00
2018-08-28T06:58:50.119Z,101386.00
2018-08-28T07:04:53.685Z,101392.00
2018-08-28T07:10:57.021Z,101397.00
2018-08-28T07:17:01.351Z,101397.00
2018-08-28T07:23:05.972Z,101404.00
2018-08-28T07:29:09.528Z,101402.00
2018-08-28T07:35:13.398Z,101396.00
2018-08-28T07:41:16.994Z,101406.00
2018-08-28T07:47:20.679Z,101400.00
2018-08-28T07:53:24.543Z,101396.00
2018-08-28T07:59:28.634Z,101400.00
2018-08-28T08:05:32.088Z,101402.00
2018-08-28T08:11:36.922Z,101398.00
2018-08-28T08:17:40.505Z,101409.00
2018-08-28T08:23:44.439Z,101412.00
2018-08-28T08:29:48.731Z,101418.00
2018-08-28T08:35:52.102Z,101414.00
2018-08-28T08:41:55.899Z,101414.00
2018-08-28T08:47:59.540Z,101421.00
2018-08-28T08:54:03.170Z,101412.00
2018-08-28T09:00:07.603Z,101412.00
2018-08-28T09:06:11.245Z,101405.00
2018-08-28T09:12:15.199Z,101407.00
2018-08-28T09:18:18.818Z,101407.00
2018-08-28T09:24:22.687Z,101401.00
2018-08-28T09:30:26.233Z,101393.00
2018-08-28T09:36:29.617Z,101392.00
2018-08-28T09:42:33.229Z,101387.00
2018-08-28T09:48:37.017Z,101381.00
2018-08-28T09:54:40.518Z,101378.00
2018-08-28T10:00:49.688Z,101369.00
2018-08-28T10:06:53.505Z,101374.00
2018-08-28T10:12:57.265Z,101363.00
2018-08-28T10:19:01.419Z,101371.00
2018-08-28T10:25:04.842Z,101366.00
2018-08-28T10:31:08.150Z,101350.00
2018-08-28T10:37:11.798Z,101358.00
2018-08-28T10:43:15.752Z,101338.00
2018-08-28T10:49:19.320Z,101345.00
2018-08-28T10:55:22.618Z,101335.00
2018-08-28T11:01:26.061Z,101328.00
2018-08-28T11:07:29.369Z,101333.00
2018-08-28T11:13:32.729Z,101338.00
2018-08-28T11:19:36.022Z,101332.00
2018-08-28T11:25:40.255Z,101329.00
2018-08-28T11:31:44.656Z,101336.00
2018-08-28T11:37:48.285Z,101332.00
2018-08-28T11:43:51.619Z,101324.00
2018-08-28T11:49:55.034Z,101329.00
2018-08-28T11:55:58.611Z,101317.00
2018-08-28T12:02:02.137Z,101315.00
2018-08-28T12:08:05.645Z,101325.00
2018-08-28T12:14:09.006Z,101320.00
2018-08-28T12:20:12.977Z,101313.00
2018-08-28T12:26:16.476Z,101312.00
2018-08-28T12:32:19.848Z,101306.00
2018-08-28T12:38:23.557Z,101299.00
2018-08-28T12:44:26.938Z,101290.00
2018-08-28T12:50:30.841Z,101286.00
2018-08-28T12:56:34.610Z,101277.00
2018-08-28T13:02:37.998Z,101271.00
2018-08-28T13:08:41.661Z,101269.00
2018-08-28T13:14:45.438Z,101251.00
2018-08-28T13:20:48.754Z,101243.00
2018-08-28T13:26:52.098Z,101250.00
2018-08-28T13:32:55.463Z,101241.00
2018-08-28T13:38:58.791Z,101238.00
2018-08-28T13:45:02.203Z,101227.00
2018-08-28T13:51:05.955Z,101219.00
2018-08-28T13:57:09.426Z,101220.00
2018-08-28T14:03:13.100Z,101219.00
2018-08-28T14:09:16.768Z,101216.00
2018-08-28T14:15:20.290Z,101219.00
2018-08-28T14:21:24.178Z,101214.00
2018-08-28T14:27:27.994Z,101215.00
2018-08-28T14:33:31.665Z,101204.00
2018-08-28T14:39:35.211Z,101201.00
2018-08-28T14:45:38.951Z,101203.00
2018-08-28T14:51:42.640Z,101190.00
2018-08-28T14:57:46.111Z,101189.00
2018-08-28T15:03:49.861Z,101182.00
2018-08-28T15:09:53.318Z,101173.00
2018-08-28T15:15:58.678Z,101169.00
2018-08-28T15:22:02.293Z,101163.00
2018-08-28T15:28:06.045Z,101153.00
2018-08-28T15:34:10.390Z,101155.00
2018-08-28T15:40:15.057Z,101153.00
2018-08-28T15:46:19.299Z,101157.00
2018-08-28T15:52:23.488Z,101153.00
2018-08-28T15:58:27.308Z,101150.00
2018-08-28T16:04:32.611Z,101148.00
2018-08-28T16:10:36.139Z,101140.00
2018-08-28T16:16:41.685Z,101133.00
2018-08-28T16:22:51.835Z,101126.00
2018-08-28T16:28:56.576Z,101125.00
2018-08-28T16:35:00.969Z,101122.00
2018-08-28T16:41:05.055Z,101107.00
2018-08-28T16:47:10.794Z,101100.00
2018-08-28T16:53:14.628Z,101096.00
2018-08-28T16:59:18.652Z,101091.00
2018-08-28T17:05:23.426Z,101069.00
2018-08-28T17:11:27.123Z,101071.00
2018-08-28T17:17:31.802Z,101065.00
2018-08-28T17:23:35.567Z,101060.00
2018-08-28T17:29:40.222Z,101059.00
2018-08-28T17:35:44.567Z,101048.00
2018-08-28T17:41:48.222Z,101058.00
2018-08-28T17:47:52.318Z,101050.00
2018-08-28T17:53:55.686Z,101042.00
2018-08-28T17:59:59.992Z,101046.00
2018-08-28T18:06:03.707Z,101061.00
2018-08-28T18:12:09.158Z,101057.00
2018-08-28T18:18:12.868Z,101058.00
2018-08-28T18:24:17.048Z,101054.00
2018-08-28T18:30:21.452Z,101053.00
2018-08-28T18:36:27.994Z,101054.00
2018-08-28T18:42:32.569Z,101049.00
2018-08-28T18:48:36.890Z,101049.00
2018-08-28T18:54:40.875Z,101044.00
2018-08-28T19:00:44.944Z,101047.00
2018-08-28T19:06:52.826Z,101051.00
2018-08-28T19:12:58.121Z,101042.00
2018-08-28T19:19:01.614Z,101050.00
2018-08-28T19:25:06.391Z,101041.00
2018-08-28T19:31:10.119Z,101043.00
2018-08-28T19:37:13.825Z,101034.00
2018-08-28T19:43:17.296Z,101044.00
2018-08-28T19:49:21.890Z,101042.00
2018-08-28T19:55:26.062Z,101039.00
2018-08-28T20:01:32.378Z,101032.00
2018-08-28T20:07:36.834Z,101019.00
2018-08-28T20:13:41.026Z,101023.00
2018-08-28T20:19:45.578Z,101010.00
2018-08-28T20:25:49.224Z,101009.00
2018-08-28T20:31:53.263Z,101015.00
2018-08-28T20:38:01.634Z,101013.00
2018-08-28T20:44:07.340Z,101008.00
2018-08-28T20:50:11.672Z,101003.00
2018-08-28T20:56:16.842Z,100994.00
2018-08-28T21:02:20.811Z,100980.00
2018-08-28T21:08:27.911Z,100979.00
2018-08-28T21:14:33.486Z,100973.00
2018-08-28T21:20:37.868Z,100966.00
2018-08-28T21:26:43.973Z,100961.00
2018-08-28T21:32:47.822Z,100948.00
2018-08-28T21:38:51.285Z,100945.00
2018-08-28T21:44:55.716Z,100945.00
2018-08-28T21:50:59.965Z,100945.00
2018-08-28T21:57:03.769Z,100942.00
2018-08-28T22:03:07.549Z,100936.00
2018-08-28T22:09:11.205Z,100929.00
2018-08-28T22:15:14.913Z,100932.00
2018-08-28T22:21:19.238Z,100928.00
2018-08-28T22:27:23.148Z,100925.00
2018-08-28T22:33:26.615Z,100929.00
2018-08-28T22:39:31.033Z,100924.00
2018-08-28T22:45:35.364Z,100912.00
2018-08-28T22:51:39.070Z,100914.00
2018-08-28T22:57:42.465Z,100907.00
2018-08-28T23:03:46.337Z,100892.00
2018-08-28T23:09:49.898Z,100863.00
2018-08-28T23:15:53.221Z,100888.00
2018-08-28T23:21:57.065Z,100876.00
2018-08-28T23:28:00.366Z,100887.00
2018-08-28T23:34:04.458Z,100882.00
2018-08-28T23:40:08.386Z,100880.00
2018-08-28T23:46:11.934Z,100877.00
2018-08-28T23:52:16.196Z,100883.00
2018-08-28T23:58:19.581Z,100875.00
